Time;durP1;ratioP1;P1;durP2;ratioP2;P2;SDS_P1;SDS_P2;PMS_P1;PMS_P2;Temp;Humidity;BMP_temperature;BMP_pressure;BME280_temperature;BME280_humidity;BME280_pressure;Samples;Min_cycle;Max_cycle;Signal;HPM_P1;HPM_P2
2022/04/24 00:01:20;;;;;;;10.20;4.20;;;;;11.90;96869.00;;;;110788;1252;41154;-60
2022/04/24 00:03:49;;;;;;;10.40;4.40;;;;;11.90;96865.80;;;;110804;1252;41559;-60
2022/04/24 00:06:23;;;;;;;11.10;4.70;;;;;11.90;96864.00;;;;110780;1250;41510;-59
2022/04/24 00:08:53;;;;;;;9.40;4.20;;;;;11.90;96867.40;;;;110560;1252;41275;-59
2022/04/24 00:11:23;;;;;;;8.60;3.90;;;;;11.90;96867.60;;;;110703;1252;41790;-60
2022/04/24 00:13:53;;;;;;;10.10;4.30;;;;;11.90;96868.60;;;;110734;1251;41264;-60
2022/04/24 00:16:23;;;;;;;10.30;4.60;;;;;11.90;96869.20;;;;110849;1251;41131;-60
2022/04/24 00:18:52;;;;;;;10.30;4.60;;;;;11.90;96868.80;;;;110767;1251;41150;-60
2022/04/24 00:21:22;;;;;;;8.80;4.10;;;;;11.90;96869.40;;;;110645;1252;41158;-60
2022/04/24 00:23:52;;;;;;;9.30;4.10;;;;;11.90;96873.20;;;;110802;1252;41240;-60
2022/04/24 00:26:22;;;;;;;9.40;4.20;;;;;11.90;96874.20;;;;110805;1252;41605;-60
2022/04/24 00:28:52;;;;;;;8.90;4.00;;;;;11.90;96873.20;;;;110675;1252;41963;-59
2022/04/24 00:31:21;;;;;;;9.50;4.30;;;;;11.90;96869.00;;;;110632;1252;41382;-61
2022/04/24 00:33:52;;;;;;;8.90;3.90;;;;;11.84;96872.00;;;;110725;1250;41156;-60
2022/04/24 00:36:22;;;;;;;8.50;3.40;;;;;11.80;96864.80;;;;110863;1251;42490;-60
2022/04/24 00:38:52;;;;;;;10.40;4.40;;;;;11.80;96864.80;;;;110618;1252;42234;-60
2022/04/24 00:41:21;;;;;;;9.90;4.10;;;;;11.78;96862.80;;;;110606;1252;41154;-60
2022/04/24 00:43:52;;;;;;;11.50;4.00;;;;;11.70;96869.20;;;;110664;1252;41262;-60
2022/04/24 00:46:55;;;;;;;10.20;4.10;;;;;11.70;96864.00;;;;110621;1252;41301;-61
2022/04/24 00:49:25;;;;;;;10.80;4.10;;;;;11.60;96864.40;;;;110663;1252;41272;-61
2022/04/24 00:51:55;;;;;;;10.20;4.40;;;;;11.50;96873.20;;;;110774;1252;41147;-60
2022/04/24 00:54:25;;;;;;;10.00;4.60;;;;;11.50;96871.80;;;;110792;1251;41168;-60
2022/04/24 00:56:55;;;;;;;12.20;5.20;;;;;11.44;96864.40;;;;110808;1252;42707;-60
2022/04/24 00:59:25;;;;;;;11.60;5.40;;;;;11.40;96861.60;;;;110551;1253;41188;-61
2022/04/24 01:01:55;;;;;;;10.40;4.20;;;;;11.34;96857.40;;;;110598;1250;41204;-60
2022/04/24 01:04:25;;;;;;;12.00;5.30;;;;;11.30;96860.00;;;;110553;1254;41410;-60
2022/04/24 01:06:55;;;;;;;10.60;4.50;;;;;11.22;96851.20;;;;110738;1251;41307;-60
2022/04/24 01:09:26;;;;;;;12.20;5.70;;;;;11.20;96851.20;;;;110792;1250;41210;-60
2022/04/24 01:11:56;;;;;;;11.20;4.90;;;;;11.20;96856.40;;;;110825;1251;41158;-59
2022/04/24 01:14:27;;;;;;;10.50;4.60;;;;;11.10;96853.20;;;;110835;1251;41159;-60
2022/04/24 01:16:58;;;;;;;10.70;4.70;;;;;11.10;96854.20;;;;110735;1251;41818;-59
2022/04/24 01:19:29;;;;;;;11.90;4.30;;;;;11.12;96852.80;;;;110846;1249;41153;-60
2022/04/24 01:21:59;;;;;;;13.70;4.30;;;;;11.10;96852.20;;;;110786;1249;41782;-60
2022/04/24 01:24:30;;;;;;;43.40;6.70;;;;;11.10;96853.80;;;;110762;1251;41134;-60
2022/04/24 01:26:59;;;;;;;42.70;5.40;;;;;11.10;96853.60;;;;110747;1252;41644;-60
2022/04/24 01:29:30;;;;;;;26.70;4.80;;;;;11.06;96848.40;;;;110779;1251;41145;-60
2022/04/24 01:31:59;;;;;;;9.60;3.70;;;;;11.00;96841.40;;;;110637;1252;42433;-60
2022/04/24 01:34:30;;;;;;;10.60;4.70;;;;;11.00;96844.40;;;;110794;1252;41283;-60
2022/04/24 01:37:01;;;;;;;13.90;4.50;;;;;11.00;96838.20;;;;110495;1253;41652;-60
2022/04/24 01:39:30;;;;;;;13.30;4.80;;;;;10.98;96841.20;;;;110694;1252;42557;-60
2022/04/24 01:42:01;;;;;;;28.00;5.30;;;;;11.00;96840.00;;;;110629;1253;41176;-59
2022/04/24 01:44:31;;;;;;;67.20;6.20;;;;;11.00;96843.20;;;;110663;1252;41199;-60
2022/04/24 01:47:01;;;;;;;22.90;5.50;;;;;11.00;96845.40;;;;110646;1251;41322;-60
2022/04/24 01:49:31;;;;;;;33.50;5.40;;;;;11.00;96844.40;;;;110825;1252;41264;-60
2022/04/24 01:52:01;;;;;;;36.00;6.00;;;;;11.00;96846.00;;;;110732;1251;41541;-60
2022/04/24 01:54:31;;;;;;;76.70;6.60;;;;;11.00;96845.80;;;;110733;1252;41434;-60
2022/04/24 01:57:00;;;;;;;27.00;4.60;;;;;11.00;96846.40;;;;110791;1251;41262;-60
2022/04/24 01:59:30;;;;;;;51.50;5.70;;;;;10.92;96847.40;;;;110781;1251;41158;-60
2022/04/24 02:01:59;;;;;;;35.90;5.50;;;;;10.90;96848.60;;;;110808;1251;41147;-60
2022/04/24 02:04:29;;;;;;;43.80;5.60;;;;;10.90;96854.60;;;;110767;1251;41937;-60
2022/04/24 02:07:00;;;;;;;22.60;6.20;;;;;10.90;96854.40;;;;110806;1252;41539;-60
2022/04/24 02:09:30;;;;;;;37.80;5.30;;;;;10.80;96854.60;;;;110837;1251;41160;-60
2022/04/24 02:12:01;;;;;;;43.80;5.10;;;;;10.80;96857.00;;;;110819;1251;41171;-60
2022/04/24 02:14:32;;;;;;;31.20;5.00;;;;;10.70;96858.20;;;;110801;1252;41356;-60
2022/04/24 02:17:02;;;;;;;27.60;4.80;;;;;10.70;96858.80;;;;110845;1251;41157;-60
2022/04/24 02:19:33;;;;;;;21.50;4.90;;;;;10.70;96866.60;;;;110610;1252;41259;-60
2022/04/24 02:22:04;;;;;;;14.40;4.70;;;;;10.70;96869.80;;;;110811;1252;41157;-60
2022/04/24 02:24:34;;;;;;;12.00;4.40;;;;;10.70;96872.20;;;;110616;1251;41802;-60
2022/04/24 02:27:04;;;;;;;20.80;4.60;;;;;10.70;96868.20;;;;110624;1250;41246;-60
2022/04/24 02:29:34;;;;;;;9.10;3.80;;;;;10.70;96870.20;;;;110748;1251;41268;-60
2022/04/24 02:32:05;;;;;;;11.10;4.70;;;;;10.70;96867.40;;;;110722;1251;42231;-60
2022/04/24 02:34:35;;;;;;;10.40;4.30;;;;;10.70;96868.40;;;;110620;1252;41171;-62
2022/04/24 02:37:06;;;;;;;9.50;4.10;;;;;10.70;96858.40;;;;110752;1252;41255;-61
2022/04/24 02:39:36;;;;;;;16.50;4.20;;;;;10.70;96860.20;;;;110730;1252;41619;-60
2022/04/24 02:42:06;;;;;;;24.50;4.30;;;;;10.70;96857.80;;;;110723;1251;41749;-61
2022/04/24 02:44:36;;;;;;;10.50;3.70;;;;;10.70;96859.20;;;;110602;1252;41363;-61
2022/04/24 02:47:07;;;;;;;15.20;3.80;;;;;10.70;96863.80;;;;110786;1251;41607;-60
2022/04/24 02:49:40;;;;;;;22.90;4.70;;;;;10.70;96868.20;;;;110634;1252;41153;-60
2022/04/24 02:52:12;;;;;;;29.00;5.80;;;;;10.70;96870.60;;;;110736;1252;41363;-60
2022/04/24 02:54:43;;;;;;;17.10;5.50;;;;;10.70;96869.60;;;;110484;1253;41630;-60
2022/04/24 02:57:13;;;;;;;19.60;5.50;;;;;10.70;96866.00;;;;110618;1252;41154;-60
2022/04/24 02:59:49;;;;;;;14.50;4.50;;;;;10.70;96863.60;;;;110570;1252;41284;-60
2022/04/24 03:02:21;;;;;;;10.30;4.10;;;;;10.70;96862.00;;;;110627;1251;41968;-60
2022/04/24 03:04:52;;;;;;;26.70;7.60;;;;;10.70;96867.40;;;;110788;1252;41198;-60
2022/04/24 03:07:23;;;;;;;22.60;6.60;;;;;10.62;96879.80;;;;110716;1251;41532;-60
2022/04/24 03:09:53;;;;;;;26.00;6.20;;;;;10.50;96878.20;;;;110780;1251;41308;-60
2022/04/24 03:12:24;;;;;;;15.00;5.50;;;;;10.40;96869.00;;;;110616;1251;41167;-60
2022/04/24 03:14:54;;;;;;;9.80;4.20;;;;;10.40;96870.60;;;;110603;1251;41951;-59
2022/04/24 03:17:26;;;;;;;11.70;4.10;;;;;10.40;96873.00;;;;110622;1251;42215;-60
2022/04/24 03:19:56;;;;;;;;;;;;;10.40;96875.80;;;;110724;1251;41166;-60
2022/04/24 03:22:27;;;;;;;12.70;5.20;;;;;10.40;96878.80;;;;110758;1251;41227;-60
2022/04/24 03:24:59;;;;;;;9.30;4.10;;;;;10.40;96881.00;;;;110743;1251;42286;-60
2022/04/24 03:27:29;;;;;;;10.10;3.90;;;;;10.40;96881.40;;;;110794;1251;41194;-60
2022/04/24 03:30:00;;;;;;;11.70;4.70;;;;;10.42;96877.60;;;;110717;1252;42286;-60
2022/04/24 03:32:32;;;;;;;11.30;5.00;;;;;10.48;96877.80;;;;110656;1251;41269;-60
2022/04/24 03:35:05;;;;;;;11.70;4.90;;;;;10.40;96885.80;;;;110677;1251;41178;-60
2022/04/24 03:37:39;;;;;;;9.30;4.40;;;;;10.40;96883.20;;;;110768;1251;41473;-60
2022/04/24 03:40:10;;;;;;;10.20;4.40;;;;;10.40;96887.20;;;;110614;1252;42217;-60
2022/04/24 03:42:40;;;;;;;10.20;4.10;;;;;10.40;96889.80;;;;110630;1250;41131;-59
2022/04/24 03:45:11;;;;;;;7.80;3.50;;;;;10.50;96889.60;;;;110714;1252;41280;-60
2022/04/24 03:47:42;;;;;;;9.30;3.90;;;;;10.50;96898.20;;;;110529;1252;41147;-60
2022/04/24 03:50:13;;;;;;;9.40;4.20;;;;;10.50;96896.40;;;;110789;1251;41160;-60
2022/04/24 03:52:43;;;;;;;;;;;;;10.60;96893.40;;;;110758;1251;41941;-60
2022/04/24 03:55:13;;;;;;;8.90;3.70;;;;;10.60;96901.40;;;;110725;1251;42376;-61
2022/04/24 03:57:43;;;;;;;9.20;4.10;;;;;10.60;96907.00;;;;110804;1251;41163;-60
2022/04/24 04:00:14;;;;;;;8.00;3.60;;;;;10.60;96908.00;;;;110761;1249;41640;-60
2022/04/24 04:02:48;;;;;;;10.70;4.30;;;;;10.58;96905.20;;;;110424;1252;41354;-60
2022/04/24 04:05:18;;;;;;;10.20;4.20;;;;;10.60;96916.80;;;;110631;1251;41272;-61
2022/04/24 04:07:48;;;;;;;10.80;4.10;;;;;10.60;96914.60;;;;110754;1251;41249;-60
2022/04/24 04:10:18;;;;;;;8.70;3.80;;;;;10.60;96924.60;;;;110637;1252;41395;-60
2022/04/24 04:12:50;;;;;;;11.10;4.10;;;;;10.68;96926.80;;;;110635;1251;41974;-60
2022/04/24 04:15:22;;;;;;;9.70;4.60;;;;;10.70;96928.60;;;;110635;1251;42008;-60
2022/04/24 04:17:51;;;;;;;10.20;4.20;;;;;10.70;96928.80;;;;110559;1253;41948;-60
2022/04/24 04:20:23;;;;;;;10.10;4.60;;;;;10.78;96924.00;;;;110679;1251;41173;-60
2022/04/24 04:22:53;;;;;;;9.80;4.00;;;;;10.80;96925.40;;;;110733;1251;41272;-60
2022/04/24 04:25:26;;;;;;;11.40;5.30;;;;;10.80;96923.20;;;;110726;1252;42531;-60
2022/04/24 04:27:56;;;;;;;9.80;4.60;;;;;10.90;96923.80;;;;110691;1251;41738;-60
2022/04/24 04:30:26;;;;;;;11.70;5.30;;;;;10.90;96926.40;;;;110743;1251;41137;-60
2022/04/24 04:32:55;;;;;;;11.80;5.40;;;;;10.90;96924.00;;;;110763;1251;41596;-60
2022/04/24 04:35:25;;;;;;;11.50;5.50;;;;;10.96;96913.80;;;;110777;1251;41951;-60
2022/04/24 04:37:55;;;;;;;11.40;5.10;;;;;11.00;96914.60;;;;110809;1251;41161;-60
2022/04/24 04:40:25;;;;;;;12.60;5.30;;;;;11.00;96913.80;;;;110931;1251;41137;-61
2022/04/24 04:42:55;;;;;;;14.00;5.20;;;;;11.00;96919.60;;;;110507;1253;41184;-62
2022/04/24 04:45:25;;;;;;;11.50;5.20;;;;;11.10;96923.00;;;;110739;1251;42526;-61
2022/04/24 04:47:55;;;;;;;11.90;4.80;;;;;11.20;96921.80;;;;110729;1251;41161;-61
2022/04/24 04:50:25;;;;;;;11.20;4.90;;;;;11.30;96925.20;;;;110736;1251;41158;-60
2022/04/24 04:52:54;;;;;;;11.50;5.20;;;;;11.40;96923.80;;;;110622;1252;41603;-61
2022/04/24 04:55:23;;;;;;;11.20;5.30;;;;;11.50;96926.20;;;;110783;1251;41246;-59
2022/04/24 04:57:54;;;;;;;12.20;6.10;;;;;11.60;96934.40;;;;110659;1251;41711;-59
2022/04/24 05:00:25;;;;;;;12.20;5.80;;;;;11.76;96930.80;;;;110702;1251;41138;-61
2022/04/24 05:02:56;;;;;;;11.70;6.10;;;;;11.90;96926.60;;;;110873;1251;41617;-60
2022/04/24 05:05:26;;;;;;;12.60;6.20;;;;;12.00;96928.40;;;;110696;1252;41169;-60
2022/04/24 05:07:57;;;;;;;12.20;5.80;;;;;12.10;96922.20;;;;110623;1251;41160;-60
2022/04/24 05:10:28;;;;;;;11.80;5.30;;;;;12.20;96918.20;;;;110714;1252;41699;-61
2022/04/24 05:12:59;;;;;;;13.50;6.00;;;;;12.22;96912.20;;;;110539;1252;41405;-60
2022/04/24 05:15:30;;;;;;;12.40;5.60;;;;;12.30;96910.20;;;;110605;1254;42412;-60
2022/04/24 05:18:01;;;;;;;13.60;6.20;;;;;12.40;96910.40;;;;110726;1251;41334;-60
2022/04/24 05:20:31;;;;;;;10.70;5.20;;;;;12.40;96906.60;;;;110791;1252;41481;-62
2022/04/24 05:23:06;;;;;;;11.00;5.40;;;;;12.50;96913.00;;;;110707;1252;41156;-60
2022/04/24 05:25:40;;;;;;;12.40;4.80;;;;;12.60;96915.40;;;;110754;1251;41162;-62
2022/04/24 05:28:10;;;;;;;10.40;5.10;;;;;12.70;96916.00;;;;110756;1253;41145;-62
2022/04/24 05:30:42;;;;;;;12.00;5.20;;;;;12.80;96918.80;;;;110566;1251;41608;-62
2022/04/24 05:33:19;;;;;;;10.00;4.50;;;;;12.86;96921.40;;;;110745;1251;41295;-62
2022/04/24 05:35:49;;;;;;;10.80;4.70;;;;;12.90;96926.60;;;;110517;1253;41167;-60
2022/04/24 05:38:19;;;;;;;;;;;;;13.00;96929.80;;;;110698;1251;41287;-60
2022/04/24 05:40:50;;;;;;;11.30;5.10;;;;;13.10;96925.20;;;;110674;1251;41146;-60
2022/04/24 05:43:21;;;;;;;10.80;4.80;;;;;13.10;96925.00;;;;110604;1251;41274;-60
2022/04/24 05:45:50;;;;;;;11.60;5.70;;;;;13.20;96931.20;;;;110642;1251;41494;-60
2022/04/24 05:48:19;;;;;;;12.00;5.30;;;;;13.20;96939.60;;;;110682;1251;42415;-60
2022/04/24 05:50:50;;;;;;;11.10;5.20;;;;;13.20;96941.60;;;;110786;1251;41138;-60
2022/04/24 05:53:19;;;;;;;11.30;5.40;;;;;13.20;96941.00;;;;110796;1250;41695;-60
2022/04/24 05:55:48;;;;;;;11.90;5.50;;;;;13.20;96937.00;;;;110633;1251;41272;-60
2022/04/24 05:58:18;;;;;;;11.20;5.10;;;;;13.30;96932.00;;;;110683;1251;41620;-60
2022/04/24 06:00:47;;;;;;;11.70;5.50;;;;;13.30;96924.40;;;;110595;1251;41161;-59
2022/04/24 06:03:16;;;;;;;10.90;5.30;;;;;13.30;96925.80;;;;110609;1251;41424;-60
2022/04/24 06:05:47;;;;;;;10.50;4.50;;;;;13.40;96916.00;;;;110573;1252;41816;-59
2022/04/24 06:08:17;;;;;;;14.10;5.90;;;;;13.40;96920.20;;;;110644;1251;41139;-60
2022/04/24 06:10:48;;;;;;;12.30;5.40;;;;;13.50;96923.00;;;;110510;1254;41343;-62
2022/04/24 06:13:18;;;;;;;;;;;;;13.60;96924.00;;;;110679;1253;41151;-60
2022/04/24 06:15:48;;;;;;;12.10;4.90;;;;;13.72;96918.00;;;;110701;1251;41156;-59
2022/04/24 06:18:23;;;;;;;10.60;5.20;;;;;13.90;96910.20;;;;110645;1250;41141;-61
2022/04/24 06:20:52;;;;;;;12.60;5.60;;;;;14.02;96913.00;;;;110526;1254;41979;-60
2022/04/24 06:23:24;;;;;;;14.10;6.80;;;;;14.12;96919.00;;;;110773;1249;41257;-60
2022/04/24 06:25:55;;;;;;;12.10;6.10;;;;;14.20;96920.00;;;;110565;1252;41160;-60
2022/04/24 06:28:25;;;;;;;12.20;6.20;;;;;14.20;96916.00;;;;110316;1252;602109;-60
2022/04/24 06:30:54;;;;;;;12.10;5.50;;;;;14.26;96918.20;;;;110593;1251;41608;-60
2022/04/24 06:33:24;;;;;;;14.30;6.30;;;;;14.30;96920.40;;;;110765;1252;41262;-60
2022/04/24 06:35:53;;;;;;;11.50;5.80;;;;;14.34;96927.60;;;;110558;1252;42254;-60
2022/04/24 06:38:22;;;;;;;11.70;5.70;;;;;14.40;96924.80;;;;110680;1251;42199;-60
2022/04/24 06:40:51;;;;;;;11.20;5.60;;;;;14.52;96920.40;;;;110785;1251;41455;-60
2022/04/24 06:43:21;;;;;;;11.30;5.10;;;;;14.60;96927.80;;;;110683;1251;41120;-60
2022/04/24 06:45:52;;;;;;;14.00;6.50;;;;;14.70;96928.60;;;;110776;1251;41159;-62
2022/04/24 06:48:21;;;;;;;13.70;6.40;;;;;14.80;96931.60;;;;110807;1251;41896;-62
2022/04/24 06:50:52;;;;;;;13.50;5.80;;;;;14.82;96931.80;;;;110812;1251;41943;-61
2022/04/24 06:53:23;;;;;;;12.20;5.60;;;;;15.00;96932.00;;;;110717;1251;41426;-61
2022/04/24 06:55:52;;;;;;;12.00;5.40;;;;;15.00;96936.00;;;;110628;1251;41179;-60
2022/04/24 06:58:25;;;;;;;10.90;5.20;;;;;15.10;96934.80;;;;110772;1251;41272;-61
2022/04/24 07:00:55;;;;;;;11.70;5.50;;;;;15.12;96939.40;;;;110531;1251;41206;-60
2022/04/24 07:03:35;;;;;;;12.60;5.80;;;;;15.20;96931.20;;;;110691;1251;41157;-59
2022/04/24 07:06:07;;;;;;;13.30;5.90;;;;;15.20;96931.80;;;;110655;1251;41461;-59
2022/04/24 07:08:36;;;;;;;13.60;6.00;;;;;15.20;96935.80;;;;110772;1250;41421;-60
2022/04/24 07:11:04;;;;;;;12.40;6.00;;;;;15.30;96935.20;;;;110712;1251;41568;-60
2022/04/24 07:13:34;;;;;;;11.80;4.60;;;;;15.40;96946.00;;;;110799;1251;41620;-60
2022/04/24 07:16:03;;;;;;;12.20;4.20;;;;;15.50;96935.40;;;;110757;1252;42387;-59
2022/04/24 07:18:32;;;;;;;10.20;4.60;;;;;15.78;96935.80;;;;110633;1251;41708;-60
2022/04/24 07:21:02;;;;;;;11.70;4.80;;;;;15.90;96933.20;;;;110800;1251;42058;-59
2022/04/24 07:23:31;;;;;;;11.00;4.60;;;;;16.16;96930.00;;;;110674;1251;41157;-60
2022/04/24 07:26:01;;;;;;;11.80;5.30;;;;;16.38;96927.00;;;;110753;1251;41618;-60
2022/04/24 07:28:31;;;;;;;10.80;5.30;;;;;16.40;96925.00;;;;110515;1253;42226;-60
2022/04/24 07:31:00;;;;;;;10.60;4.50;;;;;16.40;96925.40;;;;110593;1251;41429;-62
2022/04/24 07:33:29;;;;;;;10.20;4.40;;;;;16.40;96921.60;;;;110553;1251;42501;-60
2022/04/24 07:35:59;;;;;;;12.10;5.10;;;;;16.58;96923.80;;;;110557;1251;41607;-60
2022/04/24 07:38:28;;;;;;;12.20;4.40;;;;;16.70;96926.00;;;;110549;1252;41334;-60
2022/04/24 07:40:57;;;;;;;11.70;4.70;;;;;16.72;96926.20;;;;110526;1253;41169;-60
2022/04/24 07:43:26;;;;;;;9.80;4.60;;;;;16.80;96926.20;;;;110579;1252;41809;-60
2022/04/24 07:45:55;;;;;;;9.80;4.60;;;;;16.82;96928.60;;;;110613;1253;41294;-60
2022/04/24 07:48:25;;;;;;;11.90;4.40;;;;;16.90;96933.00;;;;110567;1253;42150;-60
2022/04/24 07:50:54;;;;;;;9.00;4.10;;;;;17.10;96934.00;;;;110574;1253;42383;-60
2022/04/24 07:53:23;;;;;;;9.40;4.10;;;;;17.20;96928.40;;;;110473;1252;41961;-60
2022/04/24 07:55:53;;;;;;;9.60;4.40;;;;;17.18;96932.60;;;;110630;1251;41263;-60
2022/04/24 07:58:22;;;;;;;12.50;4.40;;;;;17.10;96936.20;;;;110558;1251;41252;-60
2022/04/24 08:00:51;;;;;;;10.10;4.20;;;;;17.20;96937.20;;;;110591;1252;41147;-60
2022/04/24 08:03:21;;;;;;;9.60;4.00;;;;;17.30;96945.00;;;;110700;1251;41205;-61
2022/04/24 08:05:51;;;;;;;8.60;3.90;;;;;17.50;96944.20;;;;110661;1251;42152;-60
2022/04/24 08:08:25;;;;;;;11.60;4.10;;;;;17.70;96939.20;;;;110679;1251;41948;-60
2022/04/24 08:10:58;;;;;;;8.50;3.70;;;;;17.80;96934.00;;;;110676;1251;41619;-61
2022/04/24 08:13:27;;;;;;;8.00;3.80;;;;;18.10;96929.00;;;;110674;1251;41146;-61
2022/04/24 08:16:06;;;;;;;8.50;3.50;;;;;18.30;96922.60;;;;110673;1250;42172;-62
2022/04/24 08:18:39;;;;;;;8.20;3.20;;;;;18.50;96927.80;;;;110517;1251;41162;-61
2022/04/24 08:21:09;;;;;;;8.20;3.60;;;;;18.70;96927.00;;;;110707;1251;41153;-64
2022/04/24 08:23:38;;;;;;;8.20;3.30;;;;;18.90;96926.20;;;;110681;1252;41648;-62
2022/04/24 08:26:07;;;;;;;7.90;3.00;;;;;19.18;96923.20;;;;110677;1251;41169;-61
2022/04/24 08:28:42;;;;;;;8.00;3.20;;;;;19.40;96924.20;;;;110675;1251;41167;-61
2022/04/24 08:31:12;;;;;;;7.00;2.90;;;;;19.60;96922.80;;;;110631;1251;41257;-60
2022/04/24 08:33:42;;;;;;;7.60;3.40;;;;;19.80;96926.20;;;;110672;1251;41842;-61
2022/04/24 08:36:13;;;;;;;8.50;3.10;;;;;20.00;96923.80;;;;110652;1252;41182;-61
2022/04/24 08:38:43;;;;;;;6.90;3.10;;;;;20.10;96928.60;;;;110663;1251;41714;-61
2022/04/24 08:41:13;;;;;;;7.50;2.80;;;;;20.10;96923.20;;;;110704;1250;41146;-61
2022/04/24 08:43:44;;;;;;;7.10;2.80;;;;;20.10;96919.80;;;;110816;1250;41617;-62
2022/04/24 08:46:14;;;;;;;7.90;3.30;;;;;20.20;96920.40;;;;110707;1250;41158;-60
2022/04/24 08:48:47;;;;;;;6.40;2.80;;;;;20.30;96915.20;;;;110768;1250;41490;-63
2022/04/24 08:51:22;;;;;;;6.90;2.80;;;;;20.30;96922.20;;;;110618;1251;41936;-60
2022/04/24 08:53:52;;;;;;;7.80;3.10;;;;;20.42;96914.20;;;;110541;1253;41176;-60
2022/04/24 08:56:28;;;;;;;5.30;2.40;;;;;20.60;96908.60;;;;110728;1252;41170;-60
2022/04/24 08:58:58;;;;;;;8.00;3.40;;;;;20.90;96910.20;;;;110674;1251;41617;-61
2022/04/24 09:01:32;;;;;;;6.10;2.50;;;;;21.26;96905.00;;;;110610;1252;41149;-60
2022/04/24 09:04:01;;;;;;;7.50;2.50;;;;;21.64;96899.80;;;;110487;1253;41152;-60
2022/04/24 09:06:30;;;;;;;5.70;2.50;;;;;22.16;96901.20;;;;110510;1249;41265;-62
2022/04/24 09:09:06;;;;;;;5.90;2.40;;;;;22.74;96895.80;;;;110638;1253;41161;-60
2022/04/24 09:11:36;;;;;;;6.30;2.40;;;;;23.50;96886.20;;;;110692;1250;41164;-60
2022/04/24 09:14:17;;;;;;;6.20;2.50;;;;;24.82;96879.40;;;;110798;1249;41157;-62
2022/04/24 09:16:54;;;;;;;6.90;2.60;;;;;26.10;96862.80;;;;110634;1252;41863;-60
2022/04/24 09:19:26;;;;;;;7.70;2.70;;;;;26.80;96873.20;;;;110653;1253;42071;-61
2022/04/24 09:22:06;;;;;;;7.60;2.20;;;;;26.80;96865.00;;;;110632;1251;41634;-60
2022/04/24 09:24:43;;;;;;;6.00;2.00;;;;;26.98;96863.20;;;;110317;1254;42894;-59
2022/04/24 09:27:36;;;;;;;4.00;2.00;;;;;27.12;96856.60;;;;110644;1251;42058;-60
2022/04/24 09:30:13;;;;;;;4.70;2.10;;;;;27.30;96865.60;;;;110515;1254;41157;-60
2022/04/24 09:32:49;;;;;;;3.90;1.80;;;;;27.82;96858.20;;;;110611;1252;41589;-61
2022/04/24 09:35:36;;;;;;;4.90;2.20;;;;;28.66;96851.00;;;;110736;1251;42209;-61
2022/04/24 09:38:13;;;;;;;6.00;2.30;;;;;29.86;96846.40;;;;110655;1249;41902;-60
2022/04/24 09:40:46;;;;;;;4.90;1.80;;;;;30.90;96842.80;;;;110654;1251;41195;-59
2022/04/24 09:43:17;;;;;;;5.40;2.00;;;;;31.18;96840.80;;;;110847;1249;41856;-59
2022/04/24 09:45:53;;;;;;;5.30;2.10;;;;;31.44;96840.20;;;;110746;1251;42390;-62
2022/04/24 09:48:23;;;;;;;4.00;1.70;;;;;31.34;96836.00;;;;110770;1251;41134;-60
2022/04/24 09:50:54;;;;;;;3.70;1.70;;;;;32.00;96834.40;;;;110757;1249;41604;-60
2022/04/24 09:53:23;;;;;;;2.60;1.50;;;;;32.86;96834.60;;;;110672;1253;41275;-59
2022/04/24 09:55:53;;;;;;;3.30;1.60;;;;;33.64;96829.60;;;;110643;1252;41179;-61
2022/04/24 09:58:25;;;;;;;4.70;1.90;;;;;34.62;96831.00;;;;110824;1249;41250;-60
2022/04/24 10:00:54;;;;;;;4.40;1.70;;;;;35.50;96824.80;;;;110676;1252;41153;-61
2022/04/24 10:03:24;;;;;;;3.80;1.60;;;;;35.78;96810.20;;;;110663;1252;41156;-61
2022/04/24 10:05:53;;;;;;;4.60;1.70;;;;;36.10;96806.80;;;;110671;1251;41274;-61
2022/04/24 10:08:24;;;;;;;2.80;1.50;;;;;36.80;96808.20;;;;110691;1250;41350;-61
2022/04/24 10:10:53;;;;;;;3.80;1.60;;;;;37.40;96804.20;;;;110610;1252;41634;-61
2022/04/24 10:13:23;;;;;;;3.60;1.50;;;;;37.70;96805.40;;;;110590;1251;41413;-61
2022/04/24 10:16:07;;;;;;;3.10;1.30;;;;;38.10;96800.20;;;;110753;1249;42816;-63
2022/04/24 10:18:48;;;;;;;2.90;1.30;;;;;38.52;96798.40;;;;110785;1251;41329;-62
2022/04/24 10:21:26;;;;;;;3.20;1.50;;;;;38.72;96792.80;;;;110802;1249;41199;-60
2022/04/24 10:24:07;;;;;;;2.60;1.40;;;;;38.80;96792.40;;;;110781;1249;41826;-62
2022/04/24 10:26:37;;;;;;;2.70;1.40;;;;;39.12;96790.20;;;;110746;1249;41150;-61
2022/04/24 10:29:09;;;;;;;2.90;1.40;;;;;39.50;96795.20;;;;110789;1249;40872;-61
2022/04/24 10:31:43;;;;;;;2.80;1.30;;;;;39.90;96793.60;;;;110738;1249;41142;-62
2022/04/24 10:34:13;;;;;;;3.40;1.40;;;;;40.24;96796.60;;;;110724;1250;42147;-60
2022/04/24 10:36:59;;;;;;;4.10;1.90;;;;;40.34;96791.60;;;;110646;1251;41614;-61
2022/04/24 10:39:33;;;;;;;3.10;1.40;;;;;40.80;96789.60;;;;110699;1249;42414;-62
2022/04/24 10:42:14;;;;;;;3.20;1.30;;;;;41.40;96790.80;;;;110716;1250;41155;-62
2022/04/24 10:44:55;;;;;;;3.50;1.40;;;;;41.36;96791.20;;;;110712;1250;41286;-61
2022/04/24 10:47:25;;;;;;;1.60;1.10;;;;;39.88;96795.60;;;;110789;1249;41976;-62
2022/04/24 10:50:06;;;;;;;2.30;1.20;;;;;39.02;96799.60;;;;110673;1250;41183;-62
2022/04/24 10:52:43;;;;;;;3.10;1.20;;;;;38.62;96803.40;;;;110726;1249;41154;-66
2022/04/24 10:55:16;;;;;;;1.40;1.10;;;;;38.30;96798.60;;;;110762;1249;41264;-62
2022/04/24 10:57:48;;;;;;;3.90;1.40;;;;;37.96;96800.20;;;;110514;1251;41153;-60
2022/04/24 11:00:22;;;;;;;2.80;1.40;;;;;36.30;96800.20;;;;110758;1251;42053;-61
2022/04/24 11:02:52;;;;;;;2.70;1.20;;;;;35.70;96798.20;;;;110766;1249;41309;-64
2022/04/24 11:05:26;;;;;;;3.70;1.50;;;;;34.56;96799.40;;;;110731;1250;41173;-61
2022/04/24 11:08:03;;;;;;;3.00;1.50;;;;;34.08;96803.80;;;;110898;1249;41145;-62
2022/04/24 11:10:41;;;;;;;2.50;1.40;;;;;33.46;96799.20;;;;110695;1249;41174;-62
2022/04/24 11:13:17;;;;;;;1.70;1.30;;;;;33.38;96795.20;;;;110708;1249;41449;-61
2022/04/24 11:15:50;;;;;;;2.20;1.10;;;;;33.92;96798.40;;;;110662;1249;41956;-61
2022/04/24 11:18:20;;;;;;;2.80;1.30;;;;;34.48;96795.00;;;;110693;1249;42122;-61
2022/04/24 11:20:58;;;;;;;4.30;1.40;;;;;35.52;96789.80;;;;110643;1252;41207;-61
2022/04/24 11:23:35;;;;;;;1.50;1.20;;;;;36.44;96781.60;;;;110736;1251;41159;-62
2022/04/24 11:26:12;;;;;;;2.20;1.20;;;;;37.42;96774.60;;;;110648;1251;42392;-62
2022/04/24 11:28:43;;;;;;;2.40;1.30;;;;;37.90;96775.20;;;;110757;1249;42159;-60
2022/04/24 11:31:20;;;;;;;2.60;1.50;;;;;38.40;96768.20;;;;110585;1250;41193;-61
2022/04/24 11:33:57;;;;;;;1.90;1.10;;;;;39.04;96762.60;;;;110741;1249;41169;-60
2022/04/24 11:36:32;;;;;;;2.50;1.10;;;;;39.86;96762.60;;;;110755;1251;41264;-62
2022/04/24 11:39:04;;;;;;;3.30;1.30;;;;;40.40;96761.60;;;;110687;1249;41609;-63
2022/04/24 11:41:35;;;;;;;2.10;1.10;;;;;40.40;96760.00;;;;110618;1251;41846;-60
2022/04/24 11:50:14;;;;;;;2.40;1.00;;;;;40.54;96756.40;;;;110651;1251;41525;-61
2022/04/24 11:53:05;;;;;;;1.40;1.10;;;;;40.80;96749.00;;;;110701;1250;41668;-61
2022/04/24 11:58:25;;;;;;;1.70;1.10;;;;;40.50;96746.80;;;;110780;1249;41159;-62
2022/04/24 12:00:57;;;;;;;2.60;1.10;;;;;40.84;96743.20;;;;110689;1249;41721;-61
2022/04/24 12:03:32;;;;;;;2.90;1.20;;;;;41.16;96745.80;;;;110678;1251;41804;-61
2022/04/24 12:06:06;;;;;;;3.60;1.30;;;;;41.50;96747.80;;;;110698;1250;41354;-64
2022/04/24 12:08:52;;;;;;;3.10;1.30;;;;;41.08;96747.20;;;;110747;1249;41174;-64
2022/04/24 12:11:26;;;;;;;3.20;1.20;;;;;40.22;96743.20;;;;110634;1250;41655;-61
2022/04/24 12:14:06;;;;;;;1.90;1.10;;;;;40.00;96740.80;;;;110703;1250;41164;-62
2022/04/24 12:16:36;;;;;;;3.20;1.00;;;;;40.02;96738.20;;;;110663;1251;41403;-61
2022/04/24 12:19:08;;;;;;;1.10;0.90;;;;;39.92;96739.40;;;;110630;1251;41702;-61
2022/04/24 12:21:48;;;;;;;2.70;1.30;;;;;39.64;96742.80;;;;110637;1252;41604;-64
2022/04/24 12:24:18;;;;;;;3.20;1.20;;;;;37.76;96744.20;;;;110833;1249;41813;-62
2022/04/24 12:26:50;;;;;;;2.90;1.20;;;;;36.74;96744.40;;;;110642;1250;41287;-62
2022/04/24 12:29:19;;;;;;;2.00;1.10;;;;;36.02;96738.60;;;;110656;1249;41638;-59
2022/04/24 12:31:49;;;;;;;3.80;1.20;;;;;35.42;96741.40;;;;110780;1250;41595;-59
2022/04/24 12:34:21;;;;;;;;;;;;;34.82;96739.20;;;;110797;1249;41356;-59